createdAt,value
2019-02-26T00:01:33.890Z,4.70
2019-02-26T00:04:04.597Z,4.80
2019-02-26T00:06:34.250Z,4.60
2019-02-26T00:09:06.600Z,4.40
2019-02-26T00:11:38.530Z,4.10
2019-02-26T00:14:07.929Z,3.90
2019-02-26T00:16:39.693Z,3.90
2019-02-26T00:19:09.790Z,4.00
2019-02-26T00:21:40.314Z,4.20
2019-02-26T00:24:12.331Z,4.10
2019-02-26T00:26:43.477Z,3.90
2019-02-26T00:29:12.829Z,3.70
2019-02-26T00:31:43.451Z,3.80
2019-02-26T00:34:16.041Z,4.10
2019-02-26T00:36:45.279Z,4.20
2019-02-26T00:39:15.027Z,3.90
2019-02-26T00:41:44.685Z,3.60
2019-02-26T00:44:14.415Z,3.50
2019-02-26T00:46:44.160Z,3.50
2019-02-26T00:49:13.910Z,3.70
2019-02-26T00:51:45.987Z,3.70
2019-02-26T00:54:14.943Z,3.80
2019-02-26T00:56:44.573Z,3.80
2019-02-26T00:59:14.289Z,3.90
2019-02-26T01:01:46.037Z,3.70
2019-02-26T01:04:16.077Z,3.70
2019-02-26T01:06:45.764Z,3.60
2019-02-26T01:09:15.980Z,3.50
2019-02-26T01:11:47.533Z,3.70
2019-02-26T01:14:18.617Z,3.80
2019-02-26T01:16:48.513Z,4.00
2019-02-26T01:19:19.835Z,3.80
2019-02-26T01:21:50.817Z,3.90
2019-02-26T01:24:21.492Z,3.90
2019-02-26T01:26:51.888Z,3.80
2019-02-26T01:29:23.048Z,3.70
2019-02-26T01:31:52.935Z,3.80
2019-02-26T01:34:22.711Z,3.60
2019-02-26T01:36:52.347Z,3.30
2019-02-26T01:39:23.387Z,3.50
2019-02-26T01:41:56.014Z,3.20
2019-02-26T01:44:28.052Z,3.20
2019-02-26T01:46:57.808Z,3.00
2019-02-26T01:49:28.512Z,3.20
2019-02-26T01:51:58.368Z,3.10
2019-02-26T01:54:28.670Z,3.00
2019-02-26T01:56:59.474Z,3.10
2019-02-26T01:59:29.179Z,3.00
2019-02-26T02:01:58.851Z,3.00
2019-02-26T02:04:28.482Z,2.90
2019-02-26T02:06:58.960Z,2.90
2019-02-26T02:09:29.675Z,2.80
2019-02-26T02:12:00.082Z,2.70
2019-02-26T02:14:30.730Z,2.60
2019-02-26T02:17:01.228Z,2.50
2019-02-26T02:19:32.659Z,2.60
2019-02-26T02:22:02.426Z,2.50
2019-02-26T02:24:32.092Z,2.80
2019-02-26T02:27:01.855Z,2.90
2019-02-26T02:29:31.554Z,2.80
2019-02-26T02:32:02.814Z,2.80
2019-02-26T02:34:33.741Z,2.80
2019-02-26T02:37:04.304Z,2.90
2019-02-26T02:39:34.067Z,2.90
2019-02-26T02:42:03.825Z,3.00
2019-02-26T02:44:33.559Z,3.00
2019-02-26T02:47:04.268Z,2.90
2019-02-26T02:49:37.473Z,2.80
2019-02-26T02:52:07.208Z,2.70
2019-02-26T02:54:38.715Z,2.80
2019-02-26T02:57:10.010Z,3.00
2019-02-26T02:59:42.320Z,2.90
2019-02-26T03:02:12.721Z,3.10
2019-02-26T03:04:42.752Z,3.10
2019-02-26T03:07:12.449Z,3.10
2019-02-26T03:09:43.234Z,2.80
2019-02-26T03:12:13.489Z,2.60
2019-02-26T03:14:44.493Z,2.90
2019-02-26T03:17:18.169Z,3.00
2019-02-26T03:19:46.694Z,3.10
2019-02-26T03:22:18.910Z,3.30
2019-02-26T03:24:48.360Z,3.30
2019-02-26T03:27:19.118Z,3.30
2019-02-26T03:29:49.946Z,3.30
2019-02-26T03:32:20.195Z,3.30
2019-02-26T03:34:49.904Z,3.20
2019-02-26T03:37:19.741Z,3.20
2019-02-26T03:39:49.504Z,3.30
2019-02-26T03:42:21.167Z,3.40
2019-02-26T03:44:50.635Z,3.30
2019-02-26T03:47:20.474Z,3.40
2019-02-26T03:49:50.239Z,3.20
2019-02-26T03:52:20.022Z,3.20
2019-02-26T03:54:50.681Z,3.20
2019-02-26T03:57:22.691Z,3.40
2019-02-26T03:59:52.241Z,3.50
2019-02-26T04:02:23.529Z,3.40
2019-02-26T04:04:54.393Z,3.00
2019-02-26T04:07:25.980Z,2.90
2019-02-26T04:09:58.395Z,3.10
2019-02-26T04:12:28.537Z,3.20
2019-02-26T04:14:58.445Z,3.20
2019-02-26T04:17:30.795Z,3.10
2019-02-26T04:19:59.526Z,3.10
2019-02-26T04:22:39.214Z,3.30
2019-02-26T04:25:36.450Z,3.40
2019-02-26T04:28:16.125Z,3.40
2019-02-26T04:31:29.000Z,3.40
2019-02-26T04:34:35.059Z,3.20
2019-02-26T04:37:40.287Z,3.30
2019-02-26T04:40:38.934Z,3.20
2019-02-26T04:43:38.852Z,3.30
2019-02-26T04:46:48.140Z,3.30
2019-02-26T04:49:17.817Z,3.40
2019-02-26T04:51:48.509Z,3.30
2019-02-26T04:54:23.795Z,3.30
2019-02-26T04:56:51.705Z,3.40
2019-02-26T04:59:21.470Z,3.30
2019-02-26T05:01:52.328Z,3.40
2019-02-26T05:04:22.820Z,3.40
2019-02-26T05:06:52.490Z,3.60
2019-02-26T05:09:24.120Z,3.80
2019-02-26T05:11:53.507Z,3.50
2019-02-26T05:14:23.704Z,3.40
2019-02-26T05:16:53.466Z,3.50
2019-02-26T05:19:24.384Z,3.50
2019-02-26T05:21:56.786Z,3.50
2019-02-26T05:24:26.287Z,3.60
2019-02-26T05:26:56.123Z,3.50
2019-02-26T05:29:25.863Z,3.60
2019-02-26T05:31:58.097Z,3.40
2019-02-26T05:34:27.163Z,3.50
2019-02-26T05:36:59.653Z,3.40
2019-02-26T05:39:28.831Z,3.50
2019-02-26T05:42:00.851Z,3.40
2019-02-26T05:44:31.430Z,3.50
2019-02-26T05:47:01.599Z,3.50
2019-02-26T05:49:35.330Z,3.40
2019-02-26T05:52:04.755Z,3.40
2019-02-26T05:54:35.393Z,3.40
2019-02-26T05:57:06.674Z,3.60
2019-02-26T05:59:36.445Z,3.50
2019-02-26T06:02:06.133Z,3.30
2019-02-26T06:04:38.395Z,3.30
2019-02-26T06:07:09.853Z,3.40
2019-02-26T06:09:39.560Z,3.40
2019-02-26T06:12:09.242Z,3.40
2019-02-26T06:14:39.435Z,3.30
2019-02-26T06:17:10.513Z,3.30
2019-02-26T06:19:50.096Z,3.30
2019-02-26T06:22:21.374Z,3.20
2019-02-26T06:24:54.964Z,3.30
2019-02-26T06:27:24.733Z,3.40
2019-02-26T06:29:55.489Z,3.30
2019-02-26T06:32:29.932Z,3.30
2019-02-26T06:34:56.540Z,3.20
2019-02-26T06:37:28.439Z,3.00
2019-02-26T06:39:59.896Z,3.10
2019-02-26T06:42:31.595Z,3.20
2019-02-26T06:45:00.355Z,3.10
2019-02-26T06:47:31.045Z,3.10
2019-02-26T06:50:02.931Z,3.40
2019-02-26T06:52:35.121Z,3.30
2019-02-26T06:55:07.203Z,3.40
2019-02-26T06:57:38.837Z,3.50
2019-02-26T07:00:10.968Z,3.60
2019-02-26T07:02:42.986Z,3.60
2019-02-26T07:05:13.118Z,3.30
2019-02-26T07:07:42.799Z,3.40
2019-02-26T07:10:16.005Z,3.60
2019-02-26T07:12:46.138Z,3.70
2019-02-26T07:15:16.573Z,3.70
2019-02-26T07:17:47.266Z,3.80
2019-02-26T07:20:17.659Z,3.80
2019-02-26T07:22:49.632Z,3.80
2019-02-26T07:25:18.891Z,4.00
2019-02-26T07:27:48.641Z,4.30
2019-02-26T07:30:18.402Z,4.20
2019-02-26T07:32:48.361Z,4.30
2019-02-26T07:35:18.032Z,4.30
2019-02-26T07:37:47.754Z,4.30
2019-02-26T07:40:18.727Z,4.30
2019-02-26T07:42:49.163Z,4.40
2019-02-26T07:45:21.843Z,4.50
2019-02-26T07:47:53.250Z,4.60
2019-02-26T07:50:22.331Z,4.60
2019-02-26T07:52:52.645Z,4.90
2019-02-26T07:55:23.591Z,4.90
2019-02-26T07:57:53.404Z,4.90
2019-02-26T08:00:23.822Z,5.00
2019-02-26T08:02:56.454Z,5.20
2019-02-26T08:05:28.675Z,5.10
2019-02-26T08:07:57.392Z,5.00
2019-02-26T08:10:27.168Z,4.90
2019-02-26T08:12:59.401Z,5.20
2019-02-26T08:15:30.193Z,5.30
2019-02-26T08:18:01.251Z,5.40
2019-02-26T08:20:33.012Z,5.50
2019-02-26T08:23:02.447Z,5.50
2019-02-26T08:25:32.165Z,5.50
2019-02-26T08:28:01.796Z,5.70
2019-02-26T08:30:31.487Z,5.60
2019-02-26T08:33:04.283Z,5.80
2019-02-26T08:35:32.517Z,5.80
2019-02-26T08:38:05.624Z,5.70
2019-02-26T08:40:33.502Z,5.80
2019-02-26T08:43:03.154Z,5.90
2019-02-26T08:45:32.887Z,5.90
2019-02-26T08:48:02.511Z,6.10
2019-02-26T08:50:33.313Z,6.10
2019-02-26T08:53:03.738Z,6.30
2019-02-26T08:55:33.383Z,6.20
2019-02-26T08:58:03.022Z,6.20
2019-02-26T09:00:34.201Z,6.30
2019-02-26T09:03:04.248Z,6.50
2019-02-26T09:05:34.469Z,6.90
2019-02-26T09:08:05.966Z,6.90
2019-02-26T09:10:38.600Z,7.00
2019-02-26T09:13:09.376Z,6.90
2019-02-26T09:15:41.369Z,6.90
2019-02-26T09:18:11.666Z,6.90
2019-02-26T09:20:41.307Z,7.10
2019-02-26T09:23:11.011Z,7.20
2019-02-26T09:25:40.751Z,7.20
2019-02-26T09:28:10.489Z,7.40
2019-02-26T09:30:40.835Z,7.50
2019-02-26T09:33:11.219Z,7.70
2019-02-26T09:35:40.935Z,7.60
2019-02-26T09:38:12.348Z,7.60
2019-02-26T09:40:41.954Z,7.70
2019-02-26T09:43:12.893Z,7.70
2019-02-26T09:45:43.557Z,7.80
2019-02-26T09:48:16.602Z,8.20
2019-02-26T09:50:46.388Z,8.00
2019-02-26T09:53:17.131Z,8.10
2019-02-26T09:55:46.762Z,7.90
2019-02-26T09:58:18.067Z,8.00
2019-02-26T10:00:50.479Z,8.20
2019-02-26T10:03:19.035Z,8.50
2019-02-26T10:05:52.219Z,8.60
2019-02-26T10:08:22.212Z,8.60
2019-02-26T10:10:52.042Z,8.90
2019-02-26T10:13:24.990Z,8.80
2019-02-26T10:15:56.279Z,9.10
2019-02-26T10:18:27.768Z,9.10
2019-02-26T10:20:57.107Z,9.20
2019-02-26T10:23:29.096Z,9.20
2019-02-26T10:26:00.306Z,9.30
2019-02-26T10:28:30.154Z,9.30
2019-02-26T10:31:04.232Z,9.00
2019-02-26T10:33:31.604Z,8.80
2019-02-26T10:36:04.871Z,8.60
2019-02-26T10:38:36.012Z,9.00
2019-02-26T10:41:06.049Z,9.10
2019-02-26T10:43:36.050Z,8.90
2019-02-26T10:46:06.034Z,9.00
2019-02-26T10:48:35.758Z,9.00
2019-02-26T10:51:06.532Z,9.20
2019-02-26T10:53:37.016Z,9.60
2019-02-26T10:56:06.839Z,9.80
2019-02-26T10:58:37.551Z,9.80
2019-02-26T11:01:07.600Z,9.90
2019-02-26T11:03:40.782Z,9.80
2019-02-26T11:06:10.713Z,9.80
2019-02-26T11:08:40.230Z,9.80
2019-02-26T11:11:12.945Z,9.80
2019-02-26T11:13:43.485Z,10.00
2019-02-26T11:16:17.071Z,10.10
2019-02-26T11:18:45.720Z,10.10
2019-02-26T11:21:16.916Z,10.10
2019-02-26T11:23:46.726Z,10.20
2019-02-26T11:26:18.769Z,10.30
2019-02-26T11:28:48.090Z,10.30
2019-02-26T11:31:20.112Z,10.20
2019-02-26T11:33:49.381Z,10.40
2019-02-26T11:36:19.124Z,10.40
2019-02-26T11:38:48.865Z,10.50
2019-02-26T11:41:18.662Z,10.50
2019-02-26T11:43:48.418Z,10.80
2019-02-26T11:46:20.004Z,11.00
2019-02-26T11:48:50.206Z,10.80
2019-02-26T11:51:21.117Z,10.70
2019-02-26T11:53:50.854Z,10.90
2019-02-26T11:56:22.953Z,10.80
2019-02-26T11:58:52.162Z,10.50
2019-02-26T12:01:22.020Z,10.50
2019-02-26T12:03:55.881Z,10.40
2019-02-26T12:06:23.253Z,10.40
2019-02-26T12:08:52.981Z,10.50
2019-02-26T12:11:23.266Z,10.60
2019-02-26T12:13:53.273Z,10.50
2019-02-26T12:16:23.213Z,10.50
2019-02-26T12:18:53.045Z,10.40
2019-02-26T12:21:25.209Z,10.40
2019-02-26T12:23:55.666Z,10.40
2019-02-26T12:26:27.388Z,10.50
2019-02-26T12:28:57.335Z,10.50
2019-02-26T12:31:31.160Z,10.40
2019-02-26T12:33:59.521Z,10.40
2019-02-26T12:36:29.766Z,10.50
2019-02-26T12:39:02.519Z,10.60
2019-02-26T12:41:36.545Z,10.80
2019-02-26T12:44:10.651Z,10.80
2019-02-26T12:46:37.078Z,11.00
2019-02-26T12:49:09.368Z,11.00
2019-02-26T12:51:38.351Z,11.00
2019-02-26T12:54:10.057Z,11.30
2019-02-26T12:56:39.457Z,11.30
2019-02-26T12:59:09.173Z,11.20
2019-02-26T13:01:40.820Z,11.20
2019-02-26T13:04:12.989Z,11.30
2019-02-26T13:06:45.278Z,11.30
2019-02-26T13:09:13.572Z,11.40
2019-02-26T13:12:00.667Z,11.60
2019-02-26T13:14:18.082Z,11.60
2019-02-26T13:16:48.833Z,11.40
2019-02-26T13:19:22.076Z,11.20
2019-02-26T13:21:51.860Z,11.30
2019-02-26T13:24:26.470Z,11.60
2019-02-26T13:26:55.671Z,11.60
2019-02-26T13:29:25.549Z,11.40
2019-02-26T13:31:59.124Z,11.30
2019-02-26T13:34:26.706Z,11.30
2019-02-26T13:36:57.003Z,11.50
2019-02-26T13:39:36.857Z,11.80
2019-02-26T13:42:03.699Z,11.80
2019-02-26T13:44:30.112Z,11.90
2019-02-26T13:47:00.021Z,11.80
2019-02-26T13:49:29.727Z,11.80
2019-02-26T13:51:59.590Z,11.60
2019-02-26T13:54:29.383Z,11.60
2019-02-26T13:56:59.078Z,11.60
2019-02-26T13:59:28.786Z,11.60
2019-02-26T14:01:58.601Z,11.80
2019-02-26T14:04:28.488Z,11.70
2019-02-26T14:06:58.271Z,11.70
2019-02-26T14:09:28.745Z,11.60
2019-02-26T14:11:58.596Z,11.60
2019-02-26T14:14:28.780Z,11.70
2019-02-26T14:16:58.584Z,11.70
2019-02-26T14:19:28.490Z,11.80
2019-02-26T14:21:58.675Z,11.80
2019-02-26T14:24:28.471Z,11.90
2019-02-26T14:26:58.214Z,11.90
2019-02-26T14:29:29.717Z,11.70
2019-02-26T14:32:00.106Z,11.80
2019-02-26T14:34:29.982Z,11.80
2019-02-26T14:37:00.010Z,11.90
2019-02-26T14:39:29.831Z,12.10
2019-02-26T14:41:59.542Z,12.10
2019-02-26T14:44:29.448Z,12.20
2019-02-26T14:46:59.227Z,12.30
2019-02-26T14:49:29.071Z,12.20
2019-02-26T14:51:58.889Z,11.90
2019-02-26T14:54:28.757Z,11.80
2019-02-26T14:56:59.457Z,11.70
2019-02-26T14:59:29.261Z,11.70
2019-02-26T15:01:59.042Z,12.00
2019-02-26T15:04:28.756Z,12.10
2019-02-26T15:06:58.412Z,12.10
2019-02-26T15:09:29.147Z,12.00
2019-02-26T15:11:58.846Z,12.10
2019-02-26T15:14:28.598Z,12.00
2019-02-26T15:17:02.276Z,12.10
2019-02-26T15:19:34.880Z,12.20
2019-02-26T15:22:06.163Z,12.30
2019-02-26T15:24:36.002Z,12.30
2019-02-26T15:27:05.783Z,12.70
2019-02-26T15:29:35.639Z,12.80
2019-02-26T15:32:05.538Z,12.80
2019-02-26T15:34:35.317Z,12.80
2019-02-26T15:37:05.273Z,12.40
2019-02-26T15:39:35.015Z,12.60
2019-02-26T15:42:04.935Z,12.40
2019-02-26T15:44:34.665Z,12.50
2019-02-26T15:47:04.359Z,12.50
2019-02-26T15:49:35.826Z,12.40
2019-02-26T15:52:05.672Z,12.20
2019-02-26T15:54:35.621Z,11.80
2019-02-26T15:57:09.167Z,11.80
2019-02-26T15:59:39.021Z,11.60
2019-02-26T16:02:08.979Z,11.60
2019-02-26T16:04:38.780Z,11.70
2019-02-26T16:07:08.572Z,11.90
2019-02-26T16:09:38.335Z,11.90
2019-02-26T16:12:08.143Z,11.80
2019-02-26T16:14:37.792Z,11.70
2019-02-26T16:17:26.890Z,11.70
2019-02-26T16:19:56.687Z,11.70
2019-02-26T16:22:26.527Z,11.40
2019-02-26T16:24:56.315Z,11.30
2019-02-26T16:27:26.139Z,11.20
2019-02-26T16:29:55.951Z,11.00
2019-02-26T16:32:25.670Z,10.90
2019-02-26T16:34:55.329Z,10.90
2019-02-26T16:37:25.275Z,10.80
2019-02-26T16:39:56.006Z,10.60
2019-02-26T16:42:26.327Z,10.50
2019-02-26T16:44:58.612Z,10.40
2019-02-26T16:47:27.374Z,10.30
2019-02-26T16:49:58.636Z,10.20
2019-02-26T16:52:28.453Z,10.30
2019-02-26T16:54:58.106Z,10.10
2019-02-26T16:57:28.162Z,10.10
2019-02-26T16:59:58.581Z,9.90
2019-02-26T17:02:28.296Z,10.00
2019-02-26T17:04:58.032Z,9.80
2019-02-26T17:07:27.710Z,9.70
2019-02-26T17:09:57.394Z,9.60
2019-02-26T17:12:29.161Z,9.50
2019-02-26T17:14:58.801Z,9.50
2019-02-26T17:17:28.554Z,9.40
2019-02-26T17:19:58.241Z,9.20
2019-02-26T17:22:28.548Z,9.30
2019-02-26T17:24:58.672Z,9.20
2019-02-26T17:27:28.435Z,9.00
2019-02-26T17:29:58.083Z,9.10
2019-02-26T17:32:27.734Z,9.00
2019-02-26T17:34:57.367Z,8.90
2019-02-26T17:37:27.017Z,9.00
2019-02-26T17:39:56.672Z,9.20
2019-02-26T17:42:26.395Z,9.10
2019-02-26T17:44:56.061Z,8.80
2019-02-26T17:47:25.735Z,8.60
2019-02-26T17:49:55.413Z,8.50
2019-02-26T17:52:25.057Z,8.40
2019-02-26T17:54:54.702Z,8.30
2019-02-26T17:57:24.297Z,8.30
2019-02-26T17:59:53.975Z,8.50
2019-02-26T18:02:27.335Z,8.60
2019-02-26T18:04:54.939Z,8.30
2019-02-26T18:07:24.557Z,8.00
2019-02-26T18:09:54.250Z,7.80
2019-02-26T18:12:23.866Z,7.60
2019-02-26T18:14:53.495Z,7.80
2019-02-26T18:17:23.125Z,8.00
2019-02-26T18:19:52.732Z,7.90
2019-02-26T18:22:22.397Z,7.80
2019-02-26T18:24:52.087Z,7.60
2019-02-26T18:27:21.729Z,7.30
2019-02-26T18:29:51.369Z,7.20
2019-02-26T18:32:21.003Z,7.10
2019-02-26T18:34:51.702Z,7.00
2019-02-26T18:37:21.423Z,7.20
2019-02-26T18:39:54.564Z,7.40
2019-02-26T18:42:22.486Z,7.40
2019-02-26T18:44:54.156Z,7.30
2019-02-26T18:47:23.479Z,7.00
2019-02-26T18:49:55.550Z,6.80
2019-02-26T18:52:24.430Z,6.70
2019-02-26T18:54:54.243Z,6.70
2019-02-26T18:57:25.840Z,6.60
2019-02-26T18:59:55.519Z,6.40
2019-02-26T19:02:25.163Z,6.50
2019-02-26T19:04:54.851Z,6.50
2019-02-26T19:07:24.648Z,6.50
2019-02-26T19:09:56.563Z,6.60
2019-02-26T19:12:30.236Z,6.70
2019-02-26T19:14:58.583Z,6.50
2019-02-26T19:17:28.256Z,6.30
2019-02-26T19:19:57.834Z,5.90
2019-02-26T19:22:27.530Z,5.90
2019-02-26T19:24:57.204Z,6.00
2019-02-26T19:27:26.795Z,6.00
2019-02-26T19:29:56.439Z,5.90
2019-02-26T19:32:26.056Z,5.70
2019-02-26T19:34:55.702Z,5.50
2019-02-26T19:37:25.318Z,5.10
2019-02-26T19:39:56.045Z,5.20
2019-02-26T19:42:26.648Z,5.20
2019-02-26T19:44:56.265Z,5.40
2019-02-26T19:47:25.909Z,5.40
2019-02-26T19:49:55.553Z,5.40
2019-02-26T19:52:25.437Z,5.40
2019-02-26T19:54:55.247Z,5.40
2019-02-26T19:57:24.906Z,5.40
2019-02-26T19:59:54.648Z,5.40
2019-02-26T20:02:24.254Z,5.40
2019-02-26T20:04:53.886Z,5.40
2019-02-26T20:07:25.203Z,5.50
2019-02-26T20:09:54.908Z,5.30
2019-02-26T20:12:28.613Z,5.20
2019-02-26T20:14:58.900Z,5.30
2019-02-26T20:17:28.518Z,5.30
2019-02-26T20:19:58.195Z,5.20
2019-02-26T20:22:30.127Z,5.20
2019-02-26T20:24:59.164Z,5.20
2019-02-26T20:27:28.754Z,5.10
2019-02-26T20:29:58.792Z,4.80
2019-02-26T20:32:30.869Z,4.60
2019-02-26T20:34:59.775Z,4.70
2019-02-26T20:37:29.353Z,4.50
2019-02-26T20:39:59.183Z,4.30
2019-02-26T20:42:28.937Z,4.10
2019-02-26T20:45:00.249Z,4.10
2019-02-26T20:47:31.537Z,4.00
2019-02-26T20:50:02.247Z,3.80
2019-02-26T20:52:32.883Z,3.70
2019-02-26T20:55:03.275Z,3.90
2019-02-26T20:57:34.907Z,3.90
2019-02-26T21:00:04.921Z,3.80
2019-02-26T21:02:58.598Z,3.70
2019-02-26T21:05:28.446Z,3.70
2019-02-26T21:07:58.889Z,3.80
2019-02-26T21:10:28.810Z,3.80
2019-02-26T21:13:01.624Z,4.10
2019-02-26T21:15:29.909Z,4.00
2019-02-26T21:17:59.615Z,3.70
2019-02-26T21:20:29.233Z,3.70
2019-02-26T21:22:58.943Z,3.90
2019-02-26T21:25:28.608Z,3.90
2019-02-26T21:28:00.770Z,4.10
2019-02-26T21:30:29.659Z,4.10
2019-02-26T21:32:59.375Z,4.10
2019-02-26T21:35:29.096Z,4.10
2019-02-26T21:37:58.822Z,4.10
2019-02-26T21:40:28.477Z,4.00
2019-02-26T21:43:01.590Z,4.10
2019-02-26T21:45:29.550Z,4.10
2019-02-26T21:48:02.253Z,4.00
2019-02-26T21:50:30.683Z,3.80
2019-02-26T21:53:00.395Z,3.70
2019-02-26T21:55:33.744Z,3.50
2019-02-26T21:58:01.434Z,3.60
2019-02-26T22:00:31.043Z,3.60
2019-02-26T22:03:00.807Z,3.60
2019-02-26T22:05:30.447Z,3.40
2019-02-26T22:08:00.084Z,3.20
2019-02-26T22:10:29.686Z,3.00
2019-02-26T22:12:59.358Z,3.00
2019-02-26T22:15:29.046Z,2.80
2019-02-26T22:17:58.996Z,2.60
2019-02-26T22:20:36.297Z,2.60
2019-02-26T22:23:02.983Z,2.70
2019-02-26T22:25:32.596Z,2.70
2019-02-26T22:28:02.224Z,2.70
2019-02-26T22:30:31.905Z,2.50
2019-02-26T22:33:01.595Z,2.60
2019-02-26T22:35:31.230Z,2.80
2019-02-26T22:38:00.907Z,3.00
2019-02-26T22:40:30.599Z,2.80
2019-02-26T22:43:00.255Z,2.60
2019-02-26T22:45:29.939Z,2.60
2019-02-26T22:47:59.537Z,2.60
2019-02-26T22:50:29.219Z,2.80
2019-02-26T22:52:58.849Z,2.90
2019-02-26T22:55:28.532Z,2.90
2019-02-26T22:58:02.510Z,2.70
2019-02-26T23:01:01.132Z,2.80
2019-02-26T23:03:32.488Z,2.70
2019-02-26T23:06:02.100Z,2.50
2019-02-26T23:08:32.422Z,2.30
2019-02-26T23:11:02.322Z,2.50
2019-02-26T23:13:33.204Z,2.50
2019-02-26T23:16:03.337Z,2.30
2019-02-26T23:18:33.240Z,2.00
2019-02-26T23:21:04.248Z,2.20
2019-02-26T23:23:34.256Z,2.30
2019-02-26T23:26:08.642Z,2.50
2019-02-26T23:28:36.124Z,2.50
2019-02-26T23:31:07.430Z,2.60
2019-02-26T23:33:37.241Z,2.70
2019-02-26T23:36:08.596Z,2.60
2019-02-26T23:38:38.319Z,2.50
2019-02-26T23:41:08.113Z,2.60
2019-02-26T23:43:37.929Z,2.50
2019-02-26T23:46:07.836Z,2.30
2019-02-26T23:48:40.754Z,2.20
2019-02-26T23:51:09.026Z,1.80
2019-02-26T23:53:38.747Z,1.70
2019-02-26T23:56:08.491Z,1.70
2019-02-26T23:58:38.118Z,1.70
